createdAt,value
2022-08-21T00:00:32.726Z,31.9
2022-08-21T00:01:35.213Z,31.8
2022-08-21T00:02:37.749Z,32.2
2022-08-21T00:03:40.339Z,32
2022-08-21T00:04:48.353Z,32.1
2022-08-21T00:05:47.515Z,32
2022-08-21T00:06:50.004Z,32.3
2022-08-21T00:07:52.488Z,32
2022-08-21T00:08:54.688Z,31.9
2022-08-21T00:09:57.156Z,31.7
2022-08-21T00:10:59.363Z,32
2022-08-21T00:12:01.544Z,31.9
2022-08-21T00:13:05.318Z,32.2
2022-08-21T00:14:07.237Z,31.8
2022-08-21T00:15:09.715Z,31.7
2022-08-21T00:16:16.970Z,31.8
2022-08-21T00:17:19.450Z,32
2022-08-21T00:18:21.936Z,32
2022-08-21T00:19:24.140Z,32.3
2022-08-21T00:20:26.067Z,31.9
2022-08-21T00:21:28.257Z,32.2
2022-08-21T00:22:30.458Z,32.1
2022-08-21T00:23:32.958Z,31.9
2022-08-21T00:24:35.448Z,31.9
2022-08-21T00:25:37.949Z,31.8
2022-08-21T00:26:40.162Z,32.2
2022-08-21T00:27:42.368Z,32
2022-08-21T00:28:44.590Z,32
2022-08-21T00:29:46.231Z,32.1
2022-08-21T00:30:48.708Z,31.9
2022-08-21T00:31:51.179Z,32.2
2022-08-21T00:32:53.388Z,32.3
2022-08-21T00:33:56.312Z,32.1
2022-08-21T00:35:01.049Z,32
2022-08-21T00:36:03.534Z,31.9
2022-08-21T00:37:06.007Z,32.2
2022-08-21T00:38:08.475Z,31.8
2022-08-21T00:39:10.957Z,32.1
2022-08-21T00:40:13.520Z,32.1
2022-08-21T00:41:23.699Z,32.2
2022-08-21T00:42:21.071Z,32.2
2022-08-21T00:43:23.540Z,32.2
2022-08-21T00:44:26.011Z,32.2
2022-08-21T00:45:28.484Z,32.2
2022-08-21T00:46:30.668Z,32
2022-08-21T00:47:33.140Z,31.9
2022-08-21T00:48:35.348Z,32
2022-08-21T00:49:37.820Z,32.3
2022-08-21T00:50:40.036Z,31.9
2022-08-21T00:51:42.238Z,32
2022-08-21T00:52:44.729Z,32
2022-08-21T00:53:48.107Z,32.2
2022-08-21T00:54:51.929Z,32.1
2022-08-21T00:55:58.872Z,32.1
2022-08-21T00:57:01.537Z,32
2022-08-21T00:58:05.449Z,32.1
2022-08-21T00:59:10.458Z,32.2
2022-08-21T01:00:12.929Z,32.2
2022-08-21T01:01:14.920Z,32.2
2022-08-21T01:02:21.113Z,32.3
2022-08-21T01:03:23.800Z,32.3
2022-08-21T01:04:27.164Z,32.1
2022-08-21T01:05:29.364Z,32.3
2022-08-21T01:06:31.848Z,32.3
2022-08-21T01:07:34.320Z,32.1
2022-08-21T01:08:36.788Z,32.1
2022-08-21T01:09:42.496Z,32.4
2022-08-21T01:10:44.695Z,32.2
2022-08-21T01:11:51.661Z,32.1
2022-08-21T01:12:54.200Z,32.2
2022-08-21T01:13:57.207Z,32.2
2022-08-21T01:14:59.676Z,32.2
2022-08-21T01:16:02.153Z,32.2
2022-08-21T01:17:04.056Z,32.2
2022-08-21T01:18:06.544Z,32.1
2022-08-21T01:19:09.036Z,32.1
2022-08-21T01:20:13.629Z,32.1
2022-08-21T01:21:16.095Z,32.4
2022-08-21T01:22:20.355Z,32.2
2022-08-21T01:23:22.823Z,32.5
2022-08-21T01:24:25.298Z,32.2
2022-08-21T01:25:27.779Z,32.3
2022-08-21T01:26:31.154Z,32.2
2022-08-21T01:27:35.262Z,32.2
2022-08-21T01:28:37.731Z,32.3
2022-08-21T01:29:40.241Z,32.2
2022-08-21T01:30:42.170Z,32.1
2022-08-21T01:31:44.648Z,32.1
2022-08-21T01:32:47.126Z,32.2
2022-08-21T01:33:49.610Z,32.3
2022-08-21T01:34:51.818Z,32.2
2022-08-21T01:35:54.058Z,32.5
2022-08-21T01:36:56.559Z,32
2022-08-21T01:37:58.759Z,32.4
2022-08-21T01:39:01.248Z,32.5
2022-08-21T01:40:03.532Z,32.2
2022-08-21T01:41:06.379Z,32.2
2022-08-21T01:42:08.876Z,32.3
2022-08-21T01:43:11.087Z,32.1
2022-08-21T01:44:13.308Z,32.3
2022-08-21T01:45:15.228Z,32.1
2022-08-21T01:46:17.431Z,32.3
2022-08-21T01:47:19.915Z,32.3
2022-08-21T01:48:22.404Z,32.5
2022-08-21T01:49:24.887Z,32.3
2022-08-21T01:50:27.381Z,32.6
2022-08-21T01:51:29.571Z,32.5
2022-08-21T01:52:30.926Z,32.1
2022-08-21T01:53:33.432Z,32.3
2022-08-21T01:54:36.365Z,32.2
2022-08-21T01:55:38.284Z,32.2
2022-08-21T01:56:40.484Z,32.2
2022-08-21T01:57:42.956Z,32.3
2022-08-21T01:58:45.432Z,32.2
2022-08-21T01:59:47.910Z,32.1
2022-08-21T02:00:50.476Z,32.4
2022-08-21T02:01:53.227Z,32.2
2022-08-21T02:02:55.443Z,32.1
2022-08-21T02:03:58.638Z,32.3
2022-08-21T02:05:00.829Z,32.6
2022-08-21T02:06:03.026Z,32.4
2022-08-21T02:07:05.512Z,32.2
2022-08-21T02:08:10.509Z,32.4
2022-08-21T02:09:12.984Z,32.3
2022-08-21T02:10:16.961Z,32
2022-08-21T02:11:19.433Z,32.2
2022-08-21T02:12:21.912Z,32.4
2022-08-21T02:13:24.110Z,32.4
2022-08-21T02:14:27.129Z,32.2
2022-08-21T02:15:31.588Z,32.3
2022-08-21T02:16:34.091Z,32.4
2022-08-21T02:17:37.851Z,32.3
2022-08-21T02:18:40.346Z,32.2
2022-08-21T02:19:42.833Z,32.3
2022-08-21T02:20:44.467Z,32.6
2022-08-21T02:21:46.935Z,32.4
2022-08-21T02:22:49.411Z,32.2
2022-08-21T02:23:52.084Z,32.2
2022-08-21T02:24:55.402Z,32.5
2022-08-21T02:25:57.911Z,32.5
2022-08-21T02:27:00.386Z,32.3
2022-08-21T02:28:02.588Z,32.3
2022-08-21T02:29:05.061Z,32.3
2022-08-21T02:30:07.534Z,32.3
2022-08-21T02:31:09.752Z,32.5
2022-08-21T02:32:14.420Z,32.5
2022-08-21T02:33:17.256Z,32.4
2022-08-21T02:34:19.734Z,32.3
2022-08-21T02:35:26.683Z,32.4
2022-08-21T02:36:30.604Z,32.5
2022-08-21T02:37:32.815Z,32.3
2022-08-21T02:38:35.286Z,32.3
2022-08-21T02:39:37.501Z,32.3
2022-08-21T02:40:40.173Z,32.3
2022-08-21T02:41:45.175Z,32.1
2022-08-21T02:42:47.652Z,32.1
2022-08-21T02:43:50.136Z,32.3
2022-08-21T02:44:52.360Z,32.4
2022-08-21T02:45:54.565Z,32.1
2022-08-21T02:46:56.765Z,32.2
2022-08-21T02:47:59.240Z,32.4
2022-08-21T02:49:07.009Z,32.4
2022-08-21T02:50:09.490Z,32.4
2022-08-21T02:51:11.438Z,32.4
2022-08-21T02:52:13.909Z,32.3
2022-08-21T02:53:15.811Z,32.2
2022-08-21T02:54:18.067Z,32.2
2022-08-21T02:55:20.263Z,32.1
2022-08-21T02:56:22.462Z,32.2
2022-08-21T02:57:30.333Z,32.3
2022-08-21T02:58:32.276Z,32.2
2022-08-21T02:59:34.737Z,32.4
2022-08-21T03:00:36.643Z,32.5
2022-08-21T03:01:39.150Z,32.4
2022-08-21T03:02:41.667Z,32.3
2022-08-21T03:03:43.860Z,32.2
2022-08-21T03:04:46.870Z,32.4
2022-08-21T03:05:48.850Z,32
2022-08-21T03:06:51.323Z,31.8
2022-08-21T03:07:53.502Z,32.1
2022-08-21T03:08:55.676Z,32.1
2022-08-21T03:09:57.894Z,31.9
2022-08-21T03:11:00.359Z,31.9
2022-08-21T03:12:02.550Z,32.1
2022-08-21T03:13:05.036Z,32.2
2022-08-21T03:14:06.956Z,32
2022-08-21T03:15:08.886Z,31.8
2022-08-21T03:16:11.390Z,31.7
2022-08-21T03:17:13.583Z,31.8
2022-08-21T03:18:16.078Z,31.8
2022-08-21T03:19:18.274Z,32
2022-08-21T03:20:20.758Z,32
2022-08-21T03:21:23.226Z,32.1
2022-08-21T03:22:25.148Z,31.9
2022-08-21T03:23:32.891Z,31.7
2022-08-21T03:24:37.598Z,31.8
2022-08-21T03:25:42.596Z,31.6
2022-08-21T03:26:46.164Z,31.4
2022-08-21T03:27:49.202Z,31.9
2022-08-21T03:28:54.196Z,31.8
2022-08-21T03:29:56.130Z,31.8
2022-08-21T03:30:58.606Z,31.7
2022-08-21T03:32:00.809Z,31.8
2022-08-21T03:33:03.310Z,31.7
2022-08-21T03:34:05.505Z,31.7
2022-08-21T03:35:08.782Z,31.4
2022-08-21T03:36:11.248Z,31.6
2022-08-21T03:37:13.745Z,31.8
2022-08-21T03:38:16.220Z,31.7
2022-08-21T03:39:18.717Z,31.8
2022-08-21T03:40:21.247Z,31.7
2022-08-21T03:41:23.752Z,31.6
2022-08-21T03:42:25.954Z,31.6
2022-08-21T03:43:30.901Z,31.8
2022-08-21T03:44:33.430Z,31.5
2022-08-21T03:45:35.896Z,31.7
2022-08-21T03:46:38.378Z,31.6
2022-08-21T03:47:40.297Z,31.6
2022-08-21T03:48:42.492Z,31.5
2022-08-21T03:49:44.963Z,31.5
2022-08-21T03:50:47.158Z,31.7
2022-08-21T03:51:49.630Z,31.6
2022-08-21T03:52:54.700Z,31.5
2022-08-21T03:53:56.776Z,31.4
2022-08-21T03:54:59.258Z,31.4
2022-08-21T03:56:01.751Z,31.6
2022-08-21T03:57:04.218Z,31.7
2022-08-21T03:58:16.008Z,31.5
2022-08-21T03:59:11.690Z,31.7
2022-08-21T04:00:14.168Z,31.5
2022-08-21T04:01:16.757Z,31.3
2022-08-21T04:02:19.505Z,31.5
2022-08-21T04:03:21.423Z,31.5
2022-08-21T04:04:23.900Z,31.4
2022-08-21T04:05:26.383Z,31.7
2022-08-21T04:06:28.902Z,31.6
2022-08-21T04:07:34.882Z,31.5
2022-08-21T04:08:37.355Z,31.6
2022-08-21T04:09:39.263Z,31.3
2022-08-21T04:10:41.908Z,31.6
2022-08-21T04:11:44.104Z,31.5
2022-08-21T04:12:46.577Z,31.7
2022-08-21T04:13:48.783Z,31.4
2022-08-21T04:14:51.272Z,31.3
2022-08-21T04:15:53.756Z,31.5
2022-08-21T04:16:56.274Z,31.5
2022-08-21T04:17:58.758Z,31.2
2022-08-21T04:19:00.975Z,31.4
2022-08-21T04:20:03.546Z,31.5
2022-08-21T04:21:06.021Z,31.4
2022-08-21T04:22:11.019Z,31.6
2022-08-21T04:23:13.502Z,31.5
2022-08-21T04:24:18.499Z,31.6
2022-08-21T04:25:20.992Z,31.6
2022-08-21T04:26:23.069Z,31.4
2022-08-21T04:27:25.590Z,31.3
2022-08-21T04:28:29.072Z,31.5
2022-08-21T04:29:35.156Z,31.5
2022-08-21T04:30:37.882Z,31.5
2022-08-21T04:31:40.446Z,31.6
2022-08-21T04:32:42.940Z,31.6
2022-08-21T04:33:45.422Z,31.5
2022-08-21T04:34:47.382Z,31.4
2022-08-21T04:35:49.581Z,31.5
2022-08-21T04:36:52.050Z,31.2
2022-08-21T04:37:54.254Z,31.5
2022-08-21T04:38:56.196Z,31.6
2022-08-21T04:40:05.241Z,31.5
2022-08-21T04:41:08.497Z,31.4
2022-08-21T04:42:10.973Z,31.5
2022-08-21T04:43:12.878Z,31.6
2022-08-21T04:44:15.083Z,31.4
2022-08-21T04:45:17.279Z,31.6
2022-08-21T04:46:19.752Z,31.5
2022-08-21T04:47:22.227Z,31.6
2022-08-21T04:48:28.862Z,31.4
2022-08-21T04:49:30.784Z,31.7
2022-08-21T04:50:32.968Z,31.2
2022-08-21T04:51:35.157Z,31.4
2022-08-21T04:52:37.643Z,31.6
2022-08-21T04:53:40.320Z,31.5
2022-08-21T04:54:42.515Z,31.4
2022-08-21T04:55:44.732Z,31.3
2022-08-21T04:56:46.927Z,31.6
2022-08-21T04:57:49.531Z,31.3
2022-08-21T04:58:51.730Z,31.4
2022-08-21T04:59:54.207Z,31.2
2022-08-21T05:00:56.676Z,31.5
2022-08-21T05:01:59.237Z,31.4
2022-08-21T05:03:02.194Z,31.5
2022-08-21T05:04:04.366Z,31.5
2022-08-21T05:05:06.569Z,31.5
2022-08-21T05:06:09.039Z,31.3
2022-08-21T05:07:11.247Z,31.4
2022-08-21T05:08:13.243Z,31.5
2022-08-21T05:09:15.729Z,31.4
2022-08-21T05:10:17.655Z,31.4
2022-08-21T05:11:20.129Z,31.6
2022-08-21T05:12:22.598Z,31.5
2022-08-21T05:13:24.525Z,31.4
2022-08-21T05:14:26.998Z,31.7
2022-08-21T05:15:29.474Z,31.2
2022-08-21T05:16:37.567Z,31.5
2022-08-21T05:17:36.942Z,31.6
2022-08-21T05:18:39.156Z,31.4
2022-08-21T05:19:41.633Z,31.2
2022-08-21T05:20:43.540Z,31.5
2022-08-21T05:21:45.774Z,31.4
2022-08-21T05:22:47.973Z,31.4
2022-08-21T05:23:50.178Z,31.3
2022-08-21T05:24:52.435Z,31.4
2022-08-21T05:25:54.812Z,31.4
2022-08-21T05:26:57.281Z,31.5
2022-08-21T05:28:04.633Z,31.4
2022-08-21T05:29:12.203Z,31.2
2022-08-21T05:30:14.012Z,31.3
2022-08-21T05:31:15.932Z,31.2
2022-08-21T05:32:18.415Z,31.5
2022-08-21T05:33:20.884Z,31.5
2022-08-21T05:34:23.361Z,31.4
2022-08-21T05:35:25.281Z,31.5
2022-08-21T05:36:27.758Z,31.4
2022-08-21T05:37:30.235Z,31.3
2022-08-21T05:38:32.724Z,31.4
2022-08-21T05:40:04.422Z,31.4
2022-08-21T05:40:39.662Z,31.4
2022-08-21T05:41:42.169Z,31.5
2022-08-21T05:42:44.639Z,31.3
2022-08-21T05:43:49.637Z,31.3
2022-08-21T05:44:52.121Z,31.3
2022-08-21T05:45:55.949Z,31.4
2022-08-21T05:46:57.890Z,31.3
2022-08-21T05:47:59.808Z,31.1
2022-08-21T05:49:04.542Z,31.5
2022-08-21T05:50:07.032Z,31.3
2022-08-21T05:51:09.514Z,31.6
2022-08-21T05:52:11.720Z,31.5
2022-08-21T05:53:14.200Z,31.5
2022-08-21T05:54:16.406Z,31.4
2022-08-21T05:55:19.947Z,31.6
2022-08-21T05:56:21.881Z,31.3
2022-08-21T05:57:24.092Z,31.5
2022-08-21T05:58:26.018Z,31.2
2022-08-21T05:59:28.217Z,31.5
2022-08-21T06:00:30.707Z,31.5
2022-08-21T06:01:33.228Z,31.4
2022-08-21T06:02:36.018Z,31.5
2022-08-21T06:03:38.507Z,31.4
2022-08-21T06:04:41.001Z,31.3
2022-08-21T06:05:42.638Z,31.4
2022-08-21T06:06:44.833Z,31.4
2022-08-21T06:07:47.037Z,31.3
2022-08-21T06:08:49.272Z,31.4
2022-08-21T06:09:51.747Z,31.4
2022-08-21T06:10:53.968Z,31.4
2022-08-21T06:11:56.453Z,31.1
2022-08-21T06:12:59.131Z,31.5
2022-08-21T06:14:01.975Z,31.4
2022-08-21T06:15:04.463Z,31.2
2022-08-21T06:16:06.951Z,31.2
2022-08-21T06:17:09.175Z,31
2022-08-21T06:18:11.353Z,31.6
2022-08-21T06:19:13.288Z,31.2
2022-08-21T06:20:15.767Z,31.4
2022-08-21T06:21:18.264Z,31.2
2022-08-21T06:22:20.473Z,31.3
2022-08-21T06:23:22.387Z,31.7
2022-08-21T06:24:27.381Z,31.3
2022-08-21T06:25:29.872Z,31.4
2022-08-21T06:26:32.072Z,31.3
2022-08-21T06:27:34.566Z,31.3
2022-08-21T06:28:36.509Z,31.2
2022-08-21T06:29:44.160Z,31.4
2022-08-21T06:30:44.003Z,31.4
2022-08-21T06:31:46.489Z,31.4
2022-08-21T06:32:50.324Z,31.5
2022-08-21T06:33:52.963Z,31.4
2022-08-21T06:34:55.172Z,31.5
2022-08-21T06:35:57.391Z,31.4
2022-08-21T06:36:59.604Z,31.3
2022-08-21T06:38:02.094Z,31.4
2022-08-21T06:39:06.695Z,31.3
2022-08-21T06:40:09.808Z,31.2
2022-08-21T06:41:14.634Z,31.3
2022-08-21T06:42:17.125Z,31.3
2022-08-21T06:43:20.200Z,31.3
2022-08-21T06:44:25.681Z,31.4
2022-08-21T06:45:28.356Z,31.3
2022-08-21T06:46:32.626Z,31.3
2022-08-21T06:47:34.818Z,31.3
2022-08-21T06:48:37.027Z,31.5
2022-08-21T06:49:39.208Z,31.2
2022-08-21T06:50:42.030Z,31.4
2022-08-21T06:51:44.232Z,31
2022-08-21T06:52:46.440Z,31.2
2022-08-21T06:53:48.733Z,31.3
2022-08-21T06:54:50.940Z,31.2
2022-08-21T06:55:53.123Z,31.1
2022-08-21T06:56:54.758Z,31.3
2022-08-21T06:57:57.256Z,31.5
2022-08-21T06:58:59.731Z,31.3
2022-08-21T07:00:02.083Z,31.4
2022-08-21T07:01:04.636Z,31.3
2022-08-21T07:02:07.206Z,31.3
2022-08-21T07:03:09.129Z,31.3
2022-08-21T07:04:11.344Z,31.3
2022-08-21T07:05:17.738Z,31.4
2022-08-21T07:06:18.279Z,31
2022-08-21T07:07:20.764Z,31.3
2022-08-21T07:08:22.959Z,31.4
2022-08-21T07:09:25.176Z,31.4
2022-08-21T07:10:27.412Z,31.1
2022-08-21T07:11:29.886Z,31.2
2022-08-21T07:12:35.594Z,31.4
2022-08-21T07:13:37.819Z,31.3
2022-08-21T07:14:40.024Z,31.3
2022-08-21T07:15:41.950Z,31.4
2022-08-21T07:16:44.159Z,31.2
2022-08-21T07:17:46.370Z,31.1
2022-08-21T07:18:48.841Z,31.4
2022-08-21T07:19:50.752Z,31.4
2022-08-21T07:20:53.238Z,31.3
2022-08-21T07:21:55.439Z,31.1
2022-08-21T07:22:58.170Z,31.3
2022-08-21T07:24:01.111Z,31.4
2022-08-21T07:25:03.586Z,31.3
2022-08-21T07:26:05.789Z,31.3
2022-08-21T07:27:10.016Z,31.1
2022-08-21T07:28:11.841Z,31.3
2022-08-21T07:29:14.333Z,31.3
2022-08-21T07:30:16.814Z,31.1
2022-08-21T07:31:19.003Z,31.4
2022-08-21T07:32:21.588Z,31.3
2022-08-21T07:33:23.840Z,31.3
2022-08-21T07:34:25.774Z,31.3
2022-08-21T07:35:28.250Z,31.2
2022-08-21T07:36:30.451Z,31.2
2022-08-21T07:37:35.450Z,31.4
2022-08-21T07:38:37.663Z,31.1
2022-08-21T07:39:40.186Z,31.3
2022-08-21T07:40:42.982Z,31.1
2022-08-21T07:41:44.635Z,31.2
2022-08-21T07:42:46.831Z,31
2022-08-21T07:43:49.030Z,31.5
2022-08-21T07:44:55.350Z,31.4
2022-08-21T07:45:59.026Z,31.2
2022-08-21T07:47:01.218Z,31.4
2022-08-21T07:48:03.419Z,31.3
2022-08-21T07:49:05.415Z,31.2
2022-08-21T07:50:07.894Z,31.3
2022-08-21T07:51:09.850Z,31.2
2022-08-21T07:52:12.062Z,31.3
2022-08-21T07:53:14.546Z,31.1
2022-08-21T07:54:17.208Z,31.2
2022-08-21T07:55:22.903Z,31
2022-08-21T07:56:25.103Z,31.3
2022-08-21T07:57:27.594Z,31.2
2022-08-21T07:58:30.146Z,31.1
2022-08-21T07:59:34.378Z,31.1
2022-08-21T08:00:36.557Z,31.1
2022-08-21T08:01:38.828Z,31.1
2022-08-21T08:02:41.577Z,31.3
2022-08-21T08:03:44.048Z,31.3
2022-08-21T08:04:50.711Z,31
2022-08-21T08:05:51.527Z,31.1
2022-08-21T08:06:53.730Z,31
2022-08-21T08:07:55.648Z,31
2022-08-21T08:08:57.823Z,31.1
2022-08-21T08:09:59.752Z,31
2022-08-21T08:11:02.228Z,31.3
2022-08-21T08:12:04.732Z,31.1
2022-08-21T08:13:07.226Z,31
2022-08-21T08:14:12.222Z,30.9
2022-08-21T08:15:14.442Z,31.2
2022-08-21T08:16:16.944Z,30.9
2022-08-21T08:17:19.441Z,30.9
2022-08-21T08:18:21.624Z,31
2022-08-21T08:19:23.845Z,31.3
2022-08-21T08:20:26.320Z,31.1
2022-08-21T08:21:28.261Z,31.1
2022-08-21T08:22:30.487Z,31.2
2022-08-21T08:23:32.999Z,31.4
2022-08-21T08:24:35.503Z,31.2
2022-08-21T08:25:37.730Z,31
2022-08-21T08:26:39.922Z,31.3
2022-08-21T08:27:42.157Z,31.1
2022-08-21T08:28:43.786Z,31
2022-08-21T08:29:45.688Z,31.2
2022-08-21T08:30:48.158Z,31.1
2022-08-21T08:31:50.650Z,31.1
2022-08-21T08:32:53.276Z,31.1
2022-08-21T08:33:55.972Z,31.1
2022-08-21T08:34:58.172Z,31.3
2022-08-21T08:36:06.104Z,31.3
2022-08-21T08:37:06.666Z,31.4
2022-08-21T08:38:10.352Z,31.2
2022-08-21T08:39:13.013Z,31.1
2022-08-21T08:40:18.042Z,31.2
2022-08-21T08:41:20.820Z,31.2
2022-08-21T08:42:32.586Z,31.3
2022-08-21T08:43:28.336Z,31.3
2022-08-21T08:44:30.526Z,31.2
2022-08-21T08:45:33.065Z,31
2022-08-21T08:46:35.016Z,31.2
2022-08-21T08:47:37.503Z,31.1
2022-08-21T08:48:39.991Z,31.2
2022-08-21T08:49:42.252Z,31.2
2022-08-21T08:50:44.736Z,31
2022-08-21T08:51:47.212Z,31.2
2022-08-21T08:52:52.260Z,31.1
2022-08-21T08:53:54.446Z,31.1
2022-08-21T08:54:56.932Z,31.2
2022-08-21T08:55:59.422Z,31
2022-08-21T08:57:01.632Z,31.2
2022-08-21T08:58:03.826Z,31
2022-08-21T08:59:05.458Z,31
2022-08-21T09:00:08.189Z,31.2
2022-08-21T09:01:10.766Z,31.3
2022-08-21T09:02:13.480Z,31.1
2022-08-21T09:03:15.684Z,31.3
2022-08-21T09:04:17.890Z,31
2022-08-21T09:05:20.374Z,31.2
2022-08-21T09:06:22.850Z,31.2
2022-08-21T09:07:25.342Z,31.2
2022-08-21T09:08:27.860Z,31
2022-08-21T09:09:29.820Z,31.2
2022-08-21T09:10:32.311Z,31.2
2022-08-21T09:11:34.800Z,31
2022-08-21T09:12:37.280Z,31.2
2022-08-21T09:13:39.463Z,31.2
2022-08-21T09:14:41.661Z,31.2
2022-08-21T09:15:43.590Z,31.3
2022-08-21T09:16:45.540Z,31.3
2022-08-21T09:17:47.744Z,31.1
2022-08-21T09:18:49.956Z,30.9
2022-08-21T09:19:52.436Z,31.2
2022-08-21T09:20:54.633Z,31.2
2022-08-21T09:21:56.810Z,31.2
2022-08-21T09:22:59.485Z,31.2
2022-08-21T09:24:02.644Z,31.3
2022-08-21T09:25:05.120Z,31.1
2022-08-21T09:26:07.602Z,31.1
2022-08-21T09:27:10.069Z,31.1
2022-08-21T09:28:12.550Z,31
2022-08-21T09:29:14.727Z,31.1
2022-08-21T09:30:17.269Z,31.1
2022-08-21T09:31:18.957Z,30.9
2022-08-21T09:32:21.457Z,31
2022-08-21T09:33:28.158Z,31.1
2022-08-21T09:34:30.633Z,31.2
2022-08-21T09:35:32.841Z,30.9
2022-08-21T09:36:34.785Z,31.3
2022-08-21T09:37:37.264Z,31.2
2022-08-21T09:38:39.747Z,31.1
2022-08-21T09:39:45.644Z,31.1
2022-08-21T09:40:47.228Z,31.3
2022-08-21T09:41:49.493Z,31
2022-08-21T09:42:51.393Z,31.1
2022-08-21T09:43:53.473Z,30.9
2022-08-21T09:44:55.421Z,31.1
2022-08-21T09:45:57.897Z,31.1
2022-08-21T09:47:00.109Z,31.2
2022-08-21T09:48:02.574Z,30.9
2022-08-21T09:49:04.794Z,31.2
2022-08-21T09:50:12.297Z,31
2022-08-21T09:51:14.501Z,31.1
2022-08-21T09:52:16.977Z,31.1
2022-08-21T09:53:19.459Z,31.2
2022-08-21T09:54:21.975Z,30.8
2022-08-21T09:55:24.567Z,31.1
2022-08-21T09:56:27.052Z,31
2022-08-21T09:57:33.573Z,31.1
2022-08-21T09:58:35.751Z,30.9
2022-08-21T09:59:38.239Z,30.9
2022-08-21T10:00:40.500Z,31.1
2022-08-21T10:01:43.150Z,31
2022-08-21T10:02:45.352Z,30.9
2022-08-21T10:03:47.839Z,31
2022-08-21T10:04:50.341Z,31.1
2022-08-21T10:05:55.335Z,31.2
2022-08-21T10:06:58.051Z,31.1
2022-08-21T10:08:00.414Z,31.1
2022-08-21T10:09:02.885Z,30.9
2022-08-21T10:10:05.085Z,31.2
2022-08-21T10:11:07.282Z,31.1
2022-08-21T10:12:11.215Z,31.3
2022-08-21T10:13:13.972Z,31.1
2022-08-21T10:14:16.464Z,30.9
2022-08-21T10:15:18.397Z,31.1
2022-08-21T10:16:20.878Z,31
2022-08-21T10:17:23.100Z,31.1
2022-08-21T10:18:25.576Z,31.2
2022-08-21T10:19:27.799Z,31.1
2022-08-21T10:20:29.976Z,31.1
2022-08-21T10:21:32.161Z,31.2
2022-08-21T10:22:34.635Z,31
2022-08-21T10:23:36.569Z,31.1
2022-08-21T10:24:39.039Z,31.2
2022-08-21T10:25:41.213Z,31.1
2022-08-21T10:26:46.211Z,31.1
2022-08-21T10:27:48.113Z,31
2022-08-21T10:28:50.313Z,31.1
2022-08-21T10:29:52.796Z,31.1
2022-08-21T10:30:55.282Z,31.1
2022-08-21T10:31:57.627Z,31.1
2022-08-21T10:33:00.013Z,30.9
2022-08-21T10:34:02.005Z,31
2022-08-21T10:35:04.206Z,31.1
2022-08-21T10:36:06.675Z,31
2022-08-21T10:37:10.582Z,31.2
2022-08-21T10:38:23.610Z,30.9
2022-08-21T10:39:26.246Z,31
2022-08-21T10:40:23.555Z,31.1
2022-08-21T10:41:26.384Z,30.9
2022-08-21T10:42:28.859Z,31.1
2022-08-21T10:43:30.770Z,31
2022-08-21T10:44:33.241Z,31.1
2022-08-21T10:45:35.714Z,31.1
2022-08-21T10:46:38.193Z,30.9
2022-08-21T10:47:40.492Z,31.1
2022-08-21T10:48:42.685Z,31.2
2022-08-21T10:49:44.885Z,30.9
2022-08-21T10:50:46.530Z,30.9
2022-08-21T10:51:49.002Z,31.1
2022-08-21T10:52:51.527Z,31
2022-08-21T10:53:53.801Z,31.2
2022-08-21T10:54:56.002Z,31.1
2022-08-21T10:55:58.478Z,31.1
2022-08-21T10:57:00.960Z,31.2
2022-08-21T10:58:05.952Z,31.3
2022-08-21T10:59:08.478Z,30.9
2022-08-21T11:00:10.975Z,30.9
2022-08-21T11:01:13.422Z,31.1
2022-08-21T11:02:16.361Z,31.1
2022-08-21T11:03:18.904Z,31.1
2022-08-21T11:04:21.109Z,31.3
2022-08-21T11:05:23.295Z,31.1
2022-08-21T11:06:24.942Z,30.9
2022-08-21T11:07:27.157Z,31
2022-08-21T11:08:32.153Z,31
2022-08-21T11:09:35.101Z,31.1
2022-08-21T11:10:42.555Z,31.2
2022-08-21T11:11:53.751Z,31
2022-08-21T11:12:52.247Z,31.2
2022-08-21T11:13:59.434Z,31
2022-08-21T11:15:01.977Z,31.1
2022-08-21T11:16:04.423Z,31
2022-08-21T11:17:06.352Z,30.9
2022-08-21T11:18:12.320Z,31
2022-08-21T11:19:14.791Z,31
2022-08-21T11:20:17.269Z,31
2022-08-21T11:21:19.462Z,31
2022-08-21T11:22:21.645Z,31
2022-08-21T11:23:24.169Z,31.1
2022-08-21T11:24:26.865Z,31
2022-08-21T11:25:33.331Z,31
2022-08-21T11:26:34.334Z,31.1
2022-08-21T11:27:36.534Z,31.2
2022-08-21T11:28:38.744Z,31.3
2022-08-21T11:29:41.268Z,31
2022-08-21T11:30:43.746Z,31.2
2022-08-21T11:31:45.920Z,31.2
2022-08-21T11:32:48.400Z,31
2022-08-21T11:33:50.792Z,31.3
2022-08-21T11:34:52.993Z,31.2
2022-08-21T11:35:55.474Z,31.3
2022-08-21T11:36:57.978Z,31.1
2022-08-21T11:38:00.157Z,31.1
2022-08-21T11:39:02.354Z,31
2022-08-21T11:40:04.866Z,31.1
2022-08-21T11:41:07.140Z,31.1
2022-08-21T11:42:09.355Z,31.1
2022-08-21T11:43:11.878Z,31
2022-08-21T11:44:14.192Z,31.2
2022-08-21T11:45:16.395Z,31
2022-08-21T11:46:18.869Z,31
2022-08-21T11:47:21.383Z,31
2022-08-21T11:48:23.648Z,31
2022-08-21T11:49:26.124Z,31
2022-08-21T11:50:30.026Z,31
2022-08-21T11:51:33.606Z,31
2022-08-21T11:52:36.079Z,31
2022-08-21T11:53:38.553Z,31.1
2022-08-21T11:54:40.828Z,31.1
2022-08-21T11:55:43.309Z,31.3
2022-08-21T11:56:45.793Z,31.1
2022-08-21T11:57:48.289Z,31.1
2022-08-21T11:58:50.768Z,31.1
2022-08-21T11:59:58.301Z,31.2
2022-08-21T12:01:00.204Z,31.2
2022-08-21T12:02:02.458Z,31.3
2022-08-21T12:03:04.658Z,31
2022-08-21T12:04:06.869Z,31.1
2022-08-21T12:05:09.499Z,31.2
2022-08-21T12:06:11.711Z,31.4
2022-08-21T12:07:13.631Z,31.3
2022-08-21T12:08:15.849Z,31
2022-08-21T12:09:18.332Z,31.1
2022-08-21T12:10:20.821Z,31.1
2022-08-21T12:11:23.020Z,31.2
2022-08-21T12:12:28.026Z,31.2
2022-08-21T12:13:36.695Z,31.2
2022-08-21T12:14:35.510Z,31.2
2022-08-21T12:15:37.992Z,31.2
2022-08-21T12:16:40.476Z,31.3
2022-08-21T12:17:42.134Z,31.2
2022-08-21T12:18:44.615Z,31.3
2022-08-21T12:19:46.836Z,31.2
2022-08-21T12:20:50.721Z,31.2
2022-08-21T12:21:53.402Z,31.1
2022-08-21T12:22:55.362Z,31.3
2022-08-21T12:23:59.946Z,30.9
2022-08-21T12:25:01.876Z,31.2
2022-08-21T12:26:04.078Z,31.2
2022-08-21T12:27:06.279Z,31.1
2022-08-21T12:28:08.761Z,31.3
2022-08-21T12:29:11.256Z,31.2
2022-08-21T12:30:13.220Z,31.2
2022-08-21T12:31:15.475Z,31.3
2022-08-21T12:32:17.665Z,31.2
2022-08-21T12:33:20.147Z,31.4
2022-08-21T12:34:22.627Z,31.1
2022-08-21T12:35:25.636Z,31.2
2022-08-21T12:36:27.859Z,31.4
2022-08-21T12:37:30.069Z,31.2
2022-08-21T12:38:32.583Z,31.3
2022-08-21T12:39:34.270Z,31.2
2022-08-21T12:40:36.485Z,31.4
2022-08-21T12:41:38.967Z,31.3
2022-08-21T12:42:40.901Z,31.2
2022-08-21T12:43:43.396Z,31.3
2022-08-21T12:44:45.874Z,31.2
2022-08-21T12:45:51.783Z,31.2
2022-08-21T12:46:54.252Z,31.2
2022-08-21T12:47:56.723Z,31.3
2022-08-21T12:48:58.661Z,31.1
2022-08-21T12:50:01.142Z,31.3
2022-08-21T12:51:03.757Z,31.3
2022-08-21T12:52:05.960Z,31.2
2022-08-21T12:53:18.431Z,31.3
2022-08-21T12:54:13.483Z,31.2
2022-08-21T12:55:15.953Z,31.3
2022-08-21T12:56:18.163Z,31.1
2022-08-21T12:57:20.645Z,31.5
2022-08-21T12:58:24.327Z,31.3
2022-08-21T12:59:26.501Z,31.3
2022-08-21T13:00:28.979Z,31.3
2022-08-21T13:01:31.256Z,31.2
2022-08-21T13:02:38.542Z,31.1
2022-08-21T13:03:41.032Z,31.3
2022-08-21T13:04:43.235Z,31.3
2022-08-21T13:05:45.425Z,31.3
2022-08-21T13:06:47.900Z,31.3
2022-08-21T13:07:50.115Z,31.1
2022-08-21T13:08:52.307Z,31.4
2022-08-21T13:09:54.788Z,31.2
2022-08-21T13:10:56.989Z,31.1
2022-08-21T13:12:04.508Z,31.3
2022-08-21T13:13:12.481Z,31.3
2022-08-21T13:14:12.445Z,31.2
2022-08-21T13:15:15.251Z,31.2
2022-08-21T13:16:17.454Z,31.3
2022-08-21T13:17:23.771Z,31.3
2022-08-21T13:18:26.998Z,31.2
2022-08-21T13:19:29.912Z,31.3
2022-08-21T13:20:32.119Z,31.4
2022-08-21T13:21:34.047Z,31.2
2022-08-21T13:22:35.964Z,31.3
2022-08-21T13:23:37.878Z,31.2
2022-08-21T13:24:42.619Z,31.1
2022-08-21T13:25:44.864Z,31.1
2022-08-21T13:26:47.067Z,31.3
2022-08-21T13:27:49.535Z,31
2022-08-21T13:28:52.009Z,31.2
2022-08-21T13:29:55.363Z,31
2022-08-21T13:30:57.894Z,31.4
2022-08-21T13:31:59.834Z,31.1
2022-08-21T13:33:02.314Z,31.3
2022-08-21T13:34:04.824Z,31.1
2022-08-21T13:35:07.438Z,31.2
2022-08-21T13:36:09.384Z,31.1
2022-08-21T13:37:11.916Z,31.1
2022-08-21T13:38:14.142Z,31.1
2022-08-21T13:39:16.611Z,31.2
2022-08-21T13:40:19.151Z,31.4
2022-08-21T13:41:21.875Z,31.1
2022-08-21T13:42:24.383Z,31.1
2022-08-21T13:43:26.603Z,31.2
2022-08-21T13:44:28.830Z,31.1
2022-08-21T13:45:32.351Z,31.2
2022-08-21T13:46:34.279Z,31.3
2022-08-21T13:47:36.501Z,31.2
2022-08-21T13:48:38.998Z,31.2
2022-08-21T13:49:41.469Z,31.2
2022-08-21T13:50:43.681Z,31.3
2022-08-21T13:51:46.160Z,31.5
2022-08-21T13:52:48.375Z,31.2
2022-08-21T13:53:51.747Z,31
2022-08-21T13:54:53.710Z,31.2
2022-08-21T13:56:00.028Z,31.1
2022-08-21T13:57:01.197Z,31.3
2022-08-21T13:58:03.458Z,31
2022-08-21T13:59:06.013Z,31.1
2022-08-21T14:00:08.488Z,31.2
2022-08-21T14:01:11.044Z,31.2